Time;durP1;ratioP1;P1;durP2;ratioP2;P2;SDS_P1;SDS_P2;PMS_P1;PMS_P2;Temp;Humidity;BMP_temperature;BMP_pressure;BME280_temperature;BME280_humidity;BME280_pressure;Samples;Min_cycle;Max_cycle;Signal;HPM_P1;HPM_P2
2024/01/24 00:01:25;;;;;;;10.40;2.80;;;;;;;11.18;100.00;101210.59;5041659;28;20071;-68
2024/01/24 00:04:14;;;;;;;7.53;2.88;;;;;;;11.19;100.00;101204.09;5059972;28;20045;-68
2024/01/24 00:07:02;;;;;;;11.23;2.90;;;;;;;11.20;100.00;101211.16;5072919;28;20469;-68
2024/01/24 00:09:50;;;;;;;8.93;2.97;;;;;;;11.20;100.00;101208.44;5061075;28;20079;-68
2024/01/24 00:12:38;;;;;;;7.20;2.50;;;;;;;11.22;100.00;101203.56;5062492;28;20037;-68
2024/01/24 00:15:26;;;;;;;7.10;2.15;;;;;;;11.25;100.00;101211.19;5061659;28;20126;-67
2024/01/24 00:18:14;;;;;;;4.22;2.33;;;;;;;11.25;100.00;101216.66;5080750;28;20138;-67
2024/01/24 00:21:03;;;;;;;9.82;2.55;;;;;;;11.27;100.00;101233.59;5058308;28;20442;-69
2024/01/24 00:23:51;;;;;;;6.15;2.28;;;;;;;11.30;100.00;101231.16;5076310;28;20048;-69
2024/01/24 00:26:39;;;;;;;6.68;2.08;;;;;;;11.36;100.00;101195.72;5048859;28;20103;-67
2024/01/24 00:29:27;;;;;;;4.38;1.98;;;;;;;11.36;100.00;101196.53;5058842;28;20051;-67
2024/01/24 00:32:15;;;;;;;2.92;1.67;;;;;;;11.41;100.00;101163.84;5015212;28;20048;-68
2024/01/24 00:35:03;;;;;;;4.07;2.13;;;;;;;11.43;100.00;101183.50;5074275;28;20053;-68
2024/01/24 00:37:51;;;;;;;7.13;2.33;;;;;;;11.46;100.00;101174.75;5059974;28;20139;-68
2024/01/24 00:40:39;;;;;;;4.28;1.52;;;;;;;11.49;100.00;101187.88;5047967;28;20053;-67
2024/01/24 00:43:28;;;;;;;4.07;2.10;;;;;;;11.51;100.00;101190.34;5076122;28;20075;-69
2024/01/24 00:46:16;;;;;;;7.22;2.38;;;;;;;11.55;100.00;101194.19;5060177;28;20044;-68
2024/01/24 00:49:07;;;;;;;4.78;1.90;;;;;;;11.56;100.00;101195.00;5075017;28;20464;-69
2024/01/24 00:51:55;;;;;;;4.65;1.83;;;;;;;11.58;100.00;101188.19;5048265;28;20083;-66
2024/01/24 00:54:43;;;;;;;4.40;1.65;;;;;;;11.60;100.00;101179.75;5093521;28;20130;-68
2024/01/24 00:57:31;;;;;;;4.45;1.90;;;;;;;11.59;100.00;101194.47;5030106;28;20049;-67
2024/01/24 01:00:19;;;;;;;2.70;1.30;;;;;;;11.60;100.00;101174.28;5076554;28;20044;-67
2024/01/24 01:03:08;;;;;;;3.10;1.70;;;;;;;11.58;100.00;101174.56;5081123;28;20471;-68
2024/01/24 01:05:56;;;;;;;6.10;1.88;;;;;;;11.62;100.00;101183.03;5090061;28;20036;-68
2024/01/24 01:08:44;;;;;;;3.65;1.63;;;;;;;11.59;100.00;101178.09;5040412;28;20531;-66
2024/01/24 01:11:32;;;;;;;4.07;2.17;;;;;;;11.58;100.00;101192.84;5040675;28;20052;-68
2024/01/24 01:14:21;;;;;;;4.55;1.90;;;;;;;11.51;100.00;101188.44;5059900;28;20045;-68
2024/01/24 01:17:09;;;;;;;5.05;1.88;;;;;;;11.50;100.00;101180.53;5073859;28;20455;-68
2024/01/24 01:19:58;;;;;;;3.33;1.73;;;;;;;11.48;100.00;101169.06;5060637;28;20052;-67
2024/01/24 01:22:46;;;;;;;3.47;1.60;;;;;;;11.50;100.00;101175.88;5082197;28;20036;-67
2024/01/24 01:25:34;;;;;;;4.13;1.75;;;;;;;11.46;100.00;101191.13;5079243;28;20076;-67
2024/01/24 01:28:22;;;;;;;1.90;1.52;;;;;;;11.43;100.00;101190.88;5048566;28;20417;-66
2024/01/24 01:31:10;;;;;;;3.10;1.70;;;;;;;11.39;100.00;101179.63;5065609;28;20071;-67
2024/01/24 01:34:00;;;;;;;3.22;1.50;;;;;;;11.42;100.00;101179.09;5073738;28;20045;-67
2024/01/24 01:36:49;;;;;;;4.97;1.65;;;;;;;11.41;100.00;101184.84;5062518;28;20060;-67
2024/01/24 01:39:37;;;;;;;4.85;1.60;;;;;;;11.42;100.00;101194.66;5085756;28;20062;-68
2024/01/24 01:42:25;;;;;;;4.60;1.75;;;;;;;11.42;100.00;101202.84;5062018;28;20052;-68
2024/01/24 01:45:13;;;;;;;5.20;1.85;;;;;;;11.44;100.00;101198.75;5075239;28;20051;-68
2024/01/24 01:48:01;;;;;;;3.03;1.90;;;;;;;11.42;100.00;101206.38;5042526;28;20045;-67
2024/01/24 01:50:50;;;;;;;2.78;1.55;;;;;;;11.43;100.00;101207.22;5075346;28;20237;-67
2024/01/24 01:53:39;;;;;;;4.15;1.58;;;;;;;11.42;100.00;101191.94;5059399;28;20531;-68
2024/01/24 01:56:27;;;;;;;3.88;1.60;;;;;;;11.43;100.00;101201.78;5058385;28;20048;-68
2024/01/24 01:59:15;;;;;;;3.08;1.52;;;;;;;11.41;100.00;101210.22;5043720;28;20115;-67
2024/01/24 02:02:04;;;;;;;2.47;1.60;;;;;;;11.38;100.00;101208.03;5056941;28;20560;-68
2024/01/24 02:04:53;;;;;;;3.40;1.33;;;;;;;11.34;100.00;101195.97;5048880;28;20111;-68
2024/01/24 02:07:43;;;;;;;2.80;1.30;;;;;;;11.35;100.00;101189.44;5034943;28;20196;-68
2024/01/24 02:10:31;;;;;;;2.72;1.42;;;;;;;11.32;100.00;101189.16;5046805;28;20053;-69
2024/01/24 02:13:20;;;;;;;4.18;1.52;;;;;;;11.31;100.00;101182.88;5011755;28;20128;-67
2024/01/24 02:16:10;;;;;;;2.03;1.23;;;;;;;11.27;100.00;101181.75;5026329;28;20080;-67
2024/01/24 02:18:58;;;;;;;2.67;1.50;;;;;;;11.27;100.00;101181.75;5036136;28;20132;-67
2024/01/24 02:21:46;;;;;;;1.80;1.05;;;;;;;11.27;100.00;101176.31;5053276;28;20060;-67
2024/01/24 02:24:34;;;;;;;2.30;1.33;;;;;;;11.28;100.00;101175.19;5027127;28;20456;-68
2024/01/24 02:27:22;;;;;;;1.73;1.20;;;;;;;11.31;100.00;101171.97;5054213;28;20048;-67
2024/01/24 02:30:11;;;;;;;1.23;1.02;;;;;;;11.29;100.00;101193.22;5032695;28;20466;-68
2024/01/24 02:32:59;;;;;;;1.25;1.05;;;;;;;11.30;100.00;101181.22;5034099;28;20049;-67
2024/01/24 02:35:47;;;;;;;0.77;0.77;;;;;;;11.27;100.00;101170.84;5029820;28;20414;-68
2024/01/24 02:38:35;;;;;;;1.10;1.00;;;;;;;11.29;100.00;101168.69;5032495;28;20049;-67
2024/01/24 02:41:23;;;;;;;1.98;0.88;;;;;;;11.31;100.00;101177.44;5023214;28;20245;-66
2024/01/24 02:44:11;;;;;;;1.15;0.80;;;;;;;11.32;100.00;101191.88;5052489;28;20049;-67
2024/01/24 02:46:59;;;;;;;0.93;0.80;;;;;;;11.29;100.00;101185.03;5032356;28;20046;-68
2024/01/24 02:49:47;;;;;;;0.60;0.60;;;;;;;11.28;100.00;101181.50;5034692;28;20139;-67
2024/01/24 02:52:35;;;;;;;1.35;0.90;;;;;;;11.28;100.00;101197.03;5053469;28;20049;-67
2024/01/24 02:55:23;;;;;;;3.42;0.90;;;;;;;11.28;100.00;101188.84;5020144;28;20095;-68
2024/01/24 02:58:12;;;;;;;1.27;0.80;;;;;;;11.30;100.00;101173.88;5034202;28;20469;-68
2024/01/24 03:01:00;;;;;;;2.08;1.10;;;;;;;11.30;100.00;101160.25;5057725;28;20164;-67
2024/01/24 03:03:48;;;;;;;1.30;0.80;;;;;;;11.34;100.00;101168.69;5054240;28;20207;-68
2024/01/24 03:06:36;;;;;;;1.05;0.95;;;;;;;11.34;100.00;101195.97;5038215;28;20041;-67
2024/01/24 03:09:24;;;;;;;2.85;0.90;;;;;;;11.35;100.00;101173.06;5038169;28;20056;-68
2024/01/24 03:12:12;;;;;;;1.08;0.90;;;;;;;11.36;100.00;101191.09;5029003;28;20120;-67
2024/01/24 03:15:00;;;;;;;1.00;0.90;;;;;;;11.35;100.00;101186.69;5033871;28;20068;-68
2024/01/24 03:17:49;;;;;;;1.15;0.85;;;;;;;11.36;100.00;101185.63;5033016;28;20486;-68
2024/01/24 03:20:37;;;;;;;3.58;1.05;;;;;;;11.36;100.00;101174.72;5052537;28;20410;-68
2024/01/24 03:23:26;;;;;;;2.03;1.42;;;;;;;11.35;100.00;101210.44;5032515;28;20056;-68
2024/01/24 03:26:15;;;;;;;1.40;1.00;;;;;;;11.35;100.00;101222.16;5033530;28;20042;-68
2024/01/24 03:29:03;;;;;;;2.17;1.00;;;;;;;11.35;100.00;101192.16;5023769;28;20461;-67
2024/01/24 03:31:51;;;;;;;1.13;1.02;;;;;;;11.35;100.00;101235.81;5022159;28;20051;-67
2024/01/24 03:34:39;;;;;;;1.25;1.15;;;;;;;11.35;100.00;101227.63;5042561;28;20608;-68
2024/01/24 03:37:27;;;;;;;1.52;1.27;;;;;;;11.39;100.00;101238.84;5039837;28;20102;-68
2024/01/24 03:40:15;;;;;;;2.67;1.50;;;;;;;11.40;100.00;101230.41;5025927;28;20049;-68
2024/01/24 03:43:03;;;;;;;3.70;1.80;;;;;;;11.40;100.00;101235.88;5037995;28;20056;-67
2024/01/24 03:45:51;;;;;;;5.28;1.88;;;;;;;11.41;100.00;101237.50;5051858;28;20132;-68
2024/01/24 03:48:39;;;;;;;7.35;2.20;;;;;;;11.43;100.00;101259.88;5040516;28;20059;-68
2024/01/24 03:51:28;;;;;;;5.72;1.73;;;;;;;11.43;100.00;101264.53;5054226;28;20049;-68
2024/01/24 03:54:16;;;;;;;7.25;2.22;;;;;;;11.46;100.00;101267.53;5046216;28;20289;-67
2024/01/24 03:57:06;;;;;;;7.85;2.20;;;;;;;11.50;100.00;101287.78;5072740;28;20059;-66
2024/01/24 03:59:54;;;;;;;5.80;2.00;;;;;;;11.52;100.00;101277.41;5059307;28;20096;-68
2024/01/24 04:02:42;;;;;;;8.02;2.50;;;;;;;11.51;100.00;101275.75;5064833;28;20136;-68
2024/01/24 04:05:30;;;;;;;7.53;2.47;;;;;;;11.53;100.00;101275.50;5050586;28;20060;-67
2024/01/24 04:08:18;;;;;;;10.63;2.90;;;;;;;11.50;100.00;101235.91;5048008;28;20048;-68
2024/01/24 04:11:06;;;;;;;10.52;2.92;;;;;;;11.50;100.00;101213.28;5052414;28;20041;-68
2024/01/24 04:13:54;;;;;;;9.00;3.03;;;;;;;11.48;100.00;101238.09;5057759;28;20052;-68
2024/01/24 04:16:42;;;;;;;11.63;3.30;;;;;;;11.50;100.00;101241.38;5051665;28;20489;-67
2024/01/24 04:19:30;;;;;;;14.98;4.00;;;;;;;11.50;100.00;101263.22;5038202;28;20053;-68
2024/01/24 04:22:19;;;;;;;13.07;3.53;;;;;;;11.52;100.00;101276.59;5070629;28;20045;-67
2024/01/24 04:25:08;;;;;;;12.73;3.30;;;;;;;11.51;100.00;101278.47;5072045;28;20044;-68
2024/01/24 04:27:57;;;;;;;14.68;3.58;;;;;;;11.47;100.00;101288.31;5073183;28;20106;-66
2024/01/24 04:30:45;;;;;;;15.77;4.38;;;;;;;11.54;100.00;101298.16;5058683;28;20040;-68
2024/01/24 04:33:33;;;;;;;16.77;4.50;;;;;;;11.54;100.00;101319.97;5062333;28;20389;-68
2024/01/24 04:36:21;;;;;;;18.67;4.40;;;;;;;11.53;100.00;101275.50;5041539;28;20048;-67
2024/01/24 04:39:10;;;;;;;17.85;4.90;;;;;;;11.50;100.00;101304.16;5059154;28;20055;-69
2024/01/24 04:41:58;;;;;;;16.90;4.10;;;;;;;11.47;100.00;101291.03;5029332;28;20058;-67
2024/01/24 04:44:59;;;;;;;23.95;5.18;;;;;;;11.47;100.00;101293.75;5027390;28;20132;-67
2024/01/24 04:47:47;;;;;;;25.73;5.95;;;;;;;11.49;100.00;101324.31;5025066;28;20051;-68
2024/01/24 04:50:35;;;;;;;20.67;4.82;;;;;;;11.48;100.00;101314.50;5052309;28;20057;-68
2024/01/24 04:53:24;;;;;;;21.58;5.22;;;;;;;11.50;100.00;101300.59;5065016;28;20060;-67
2024/01/24 04:56:12;;;;;;;23.38;5.65;;;;;;;11.46;100.00;101315.84;5047314;28;20056;-68
2024/01/24 04:59:00;;;;;;;21.30;5.15;;;;;;;11.48;100.00;101308.22;5053468;28;20077;-67
2024/01/24 05:01:48;;;;;;;20.45;4.63;;;;;;;11.46;100.00;101289.38;5052870;28;20045;-68
2024/01/24 05:04:36;;;;;;;21.30;5.50;;;;;;;11.45;100.00;101331.41;5069529;28;20492;-68
2024/01/24 05:07:25;;;;;;;21.45;5.72;;;;;;;11.43;100.00;101328.09;5060905;28;20050;-68
2024/01/24 05:10:14;;;;;;;28.10;7.07;;;;;;;11.38;100.00;101341.72;5053629;28;20528;-65
2024/01/24 05:13:02;;;;;;;30.38;6.63;;;;;;;11.35;100.00;101314.94;5041518;28;20045;-68
2024/01/24 05:15:50;;;;;;;30.10;6.97;;;;;;;11.34;100.00;101356.94;5074483;28;20040;-67
2024/01/24 05:18:39;;;;;;;30.52;6.72;;;;;;;11.34;100.00;101340.56;5059437;28;20500;-67
2024/01/24 05:21:27;;;;;;;30.13;6.60;;;;;;;11.33;100.00;101358.03;5056119;28;20095;-67
2024/01/24 05:24:15;;;;;;;29.30;6.55;;;;;;;11.33;100.00;101373.56;5044375;28;20053;-67
2024/01/24 05:27:04;;;;;;;22.98;5.38;;;;;;;11.34;100.00;101378.78;5075862;28;20383;-67
2024/01/24 05:29:52;;;;;;;21.25;5.38;;;;;;;11.34;100.00;101365.13;5061881;28;20508;-67
2024/01/24 05:32:40;;;;;;;27.48;6.32;;;;;;;11.33;100.00;101349.84;5048477;28;20126;-67
2024/01/24 05:35:28;;;;;;;28.45;7.03;;;;;;;11.32;100.00;101358.28;5040174;28;20045;-68
2024/01/24 05:38:16;;;;;;;25.85;6.28;;;;;;;11.30;100.00;101344.91;5070261;28;20044;-68
2024/01/24 05:41:04;;;;;;;28.33;7.15;;;;;;;11.30;100.00;101339.44;5053167;28;20056;-67
2024/01/24 05:43:52;;;;;;;29.33;7.95;;;;;;;11.26;100.00;101355.53;5056629;28;20040;-66
2024/01/24 05:46:40;;;;;;;26.27;7.10;;;;;;;11.27;100.00;101356.34;5085205;28;20407;-66
2024/01/24 05:49:29;;;;;;;30.55;7.45;;;;;;;11.27;100.00;101365.34;5085147;28;20068;-66
2024/01/24 05:52:17;;;;;;;29.25;6.45;;;;;;;11.29;100.00;101367.81;5089303;28;20045;-67
2024/01/24 05:55:05;;;;;;;32.30;7.78;;;;;;;11.35;100.00;101390.50;5070051;28;20048;-66
2024/01/24 05:57:53;;;;;;;26.65;6.90;;;;;;;11.30;100.00;101385.81;5077029;28;20048;-68
2024/01/24 06:00:42;;;;;;;33.28;7.75;;;;;;;11.28;100.00;101380.63;5038604;28;20048;-68
2024/01/24 06:03:32;;;;;;;32.17;7.97;;;;;;;11.25;100.00;101413.06;5044263;28;20053;-67
2024/01/24 06:06:20;;;;;;;33.65;8.15;;;;;;;11.27;100.00;101410.91;5068812;28;20044;-68
2024/01/24 06:09:08;;;;;;;24.88;6.40;;;;;;;11.26;100.00;101442.00;5071675;28;20044;-67
2024/01/24 06:11:56;;;;;;;31.35;7.88;;;;;;;11.28;100.00;101431.63;5046248;28;20049;-67
2024/01/24 06:14:44;;;;;;;29.33;6.93;;;;;;;11.25;100.00;101434.88;5061513;28;20051;-67
2024/01/24 06:17:32;;;;;;;34.88;9.48;;;;;;;11.25;100.00;101445.78;5063784;28;20048;-67
2024/01/24 06:20:22;;;;;;;28.80;7.28;;;;;;;11.24;100.00;101460.53;5022465;28;20041;-67
2024/01/24 06:23:10;;;;;;;38.08;8.77;;;;;;;11.28;100.00;101480.72;5022584;28;20049;-68
2024/01/24 06:25:58;;;;;;;41.28;9.25;;;;;;;11.23;100.00;101486.13;5031187;28;20049;-68
2024/01/24 06:28:46;;;;;;;41.60;10.27;;;;;;;11.25;100.00;101448.50;5053572;28;20171;-68
2024/01/24 06:31:34;;;;;;;41.35;9.60;;;;;;;11.24;100.00;101504.97;5057582;28;20319;-66
2024/01/24 06:34:22;;;;;;;31.08;6.95;;;;;;;11.21;100.00;101521.88;5070334;28;20298;-68
2024/01/24 06:37:10;;;;;;;42.72;10.18;;;;;;;11.20;100.00;101524.84;5043166;28;20056;-68
2024/01/24 06:39:58;;;;;;;39.92;10.48;;;;;;;11.19;100.00;101539.56;5041237;28;20040;-68
2024/01/24 06:42:47;;;;;;;39.47;10.00;;;;;;;11.13;100.00;101507.84;5044430;28;20040;-68
2024/01/24 06:45:35;;;;;;;44.40;10.27;;;;;;;11.04;100.00;101524.66;5071777;28;20045;-67
2024/01/24 06:48:24;;;;;;;42.08;9.50;;;;;;;11.01;100.00;101541.50;5070011;28;20123;-67
2024/01/24 06:51:13;;;;;;;33.95;7.78;;;;;;;10.98;100.00;101539.31;5066785;28;20101;-67
2024/01/24 06:54:01;;;;;;;42.15;9.88;;;;;;;10.96;100.00;101559.72;5041123;28;20083;-68
2024/01/24 06:56:49;;;;;;;42.63;10.98;;;;;;;10.90;100.00;101586.09;5054010;28;20170;-68
2024/01/24 06:59:37;;;;;;;40.85;9.43;;;;;;;10.91;100.00;101590.47;5069175;28;20037;-68
2024/01/24 07:02:26;;;;;;;46.58;11.38;;;;;;;10.88;100.00;101599.97;5052974;28;20060;-67
2024/01/24 07:05:14;;;;;;;49.40;11.18;;;;;;;10.86;100.00;101601.31;5031489;28;20040;-67
2024/01/24 07:08:02;;;;;;;48.15;11.55;;;;;;;10.79;100.00;101595.19;5056583;28;20095;-67
2024/01/24 07:10:50;;;;;;;48.55;11.68;;;;;;;10.74;100.00;101589.69;5080379;28;20182;-67
2024/01/24 07:13:38;;;;;;;46.00;11.82;;;;;;;10.70;100.00;101596.69;5070784;28;20103;-68
2024/01/24 07:16:26;;;;;;;51.10;11.60;;;;;;;10.66;100.00;101585.47;4701471;28;9999984;-67
2024/01/24 07:19:15;;;;;;;41.80;10.32;;;;;;;10.64;100.00;101587.63;5068914;28;20110;-67
2024/01/24 07:22:03;;;;;;;47.97;10.30;;;;;;;10.62;100.00;101598.78;5041732;28;20064;-67
2024/01/24 07:24:52;;;;;;;36.33;9.30;;;;;;;10.68;100.00;101620.66;5070283;28;20045;-68
2024/01/24 07:27:40;;;;;;;44.65;10.45;;;;;;;10.71;100.00;101590.19;5069573;28;20091;-67
2024/01/24 07:30:28;;;;;;;45.90;10.80;;;;;;;10.68;100.00;101609.75;5064277;28;20638;-68
2024/01/24 07:33:16;;;;;;;43.28;9.77;;;;;;;10.64;100.00;101614.88;5036832;28;20056;-70
2024/01/24 07:36:05;;;;;;;46.65;10.82;;;;;;;10.59;100.00;101618.34;5067332;28;20103;-68
2024/01/24 07:38:53;;;;;;;40.60;10.55;;;;;;;10.53;100.00;101638.41;5068457;28;20036;-69
2024/01/24 07:41:41;;;;;;;50.92;11.73;;;;;;;10.48;100.00;101635.59;5041673;28;20501;-65
2024/01/24 07:44:29;;;;;;;45.65;10.68;;;;;;;10.45;100.00;101638.81;5057495;28;20045;-68
2024/01/24 07:47:19;;;;;;;49.38;9.63;;;;;;;10.42;100.00;101640.16;5067073;28;20052;-65
2024/01/24 07:50:08;;;;;;;44.65;11.60;;;;;;;10.42;100.00;101644.78;5067672;28;20401;-66
2024/01/24 07:52:57;;;;;;;53.45;11.85;;;;;;;10.40;100.00;101646.91;5068266;28;20383;-67
2024/01/24 07:55:45;;;;;;;43.38;9.68;;;;;;;10.39;100.00;101650.69;5055321;28;20129;-65
2024/01/24 07:58:47;;;;;;;41.22;9.65;;;;;;;10.45;100.00;101666.06;5074937;28;20526;-65
2024/01/24 08:01:36;;;;;;;33.40;8.13;;;;;;;10.43;100.00;101670.94;5070857;28;20052;-66
2024/01/24 08:04:24;;;;;;;42.40;9.80;;;;;;;10.43;100.00;101660.03;5043474;28;20114;-66
2024/01/24 08:07:13;;;;;;;45.13;9.88;;;;;;;10.40;100.00;101674.16;5056843;28;20053;-66
2024/01/24 08:10:01;;;;;;;45.85;10.10;;;;;;;10.40;100.00;101674.16;5070871;28;20068;-65
2024/01/24 08:12:49;;;;;;;43.28;9.48;;;;;;;10.42;100.00;101663.84;5055429;28;20048;-66
2024/01/24 08:15:37;;;;;;;35.45;9.13;;;;;;;10.48;100.00;101678.38;5043515;28;20084;-66
2024/01/24 08:18:26;;;;;;;33.15;9.10;;;;;;;10.43;100.00;101695.47;5068316;28;20501;-66
2024/01/24 08:21:15;;;;;;;39.58;10.23;;;;;;;10.43;100.00;101696.28;5044909;28;20485;-66
2024/01/24 08:24:03;;;;;;;37.13;8.98;;;;;;;10.41;100.00;101714.78;5060464;28;20045;-66
2024/01/24 08:26:51;;;;;;;39.05;9.38;;;;;;;10.42;100.00;101721.06;5059474;28;20044;-66
2024/01/24 08:29:41;;;;;;;41.88;9.90;;;;;;;10.39;100.00;101716.06;5073984;28;20044;-66
2024/01/24 08:32:29;;;;;;;36.25;9.10;;;;;;;10.40;100.00;101717.75;5034470;28;20045;-67
2024/01/24 08:35:17;;;;;;;37.92;9.57;;;;;;;10.38;100.00;101714.44;5077334;28;20044;-66
2024/01/24 08:38:06;;;;;;;45.97;11.13;;;;;;;10.40;100.00;101720.47;5063144;28;20459;-66
2024/01/24 08:40:54;;;;;;;36.85;9.00;;;;;;;10.43;100.00;101739.88;5075576;28;20051;-66
2024/01/24 08:43:42;;;;;;;36.65;8.90;;;;;;;10.42;100.00;101757.31;5046066;28;20049;-65
2024/01/24 08:46:30;;;;;;;36.70;9.60;;;;;;;10.35;100.00;101761.25;5073657;28;20511;-66
2024/01/24 08:49:18;;;;;;;43.08;9.60;;;;;;;10.37;100.00;101767.28;5060736;28;20049;-67
2024/01/24 08:52:07;;;;;;;40.08;9.27;;;;;;;10.38;100.00;101760.75;5075305;28;20398;-65
2024/01/24 08:54:55;;;;;;;41.97;9.43;;;;;;;10.37;100.00;101745.50;5055192;28;20051;-66
2024/01/24 08:57:44;;;;;;;34.97;8.50;;;;;;;10.36;100.00;101741.09;5056165;28;20055;-66
2024/01/24 09:00:32;;;;;;;44.47;10.77;;;;;;;10.30;100.00;101748.34;5061120;28;20115;-65
2024/01/24 09:03:20;;;;;;;43.85;10.20;;;;;;;10.28;100.00;101757.81;5061163;28;20088;-65
2024/01/24 09:06:08;;;;;;;42.45;9.55;;;;;;;10.34;100.00;101763.16;5075846;28;20048;-65
2024/01/24 09:08:57;;;;;;;33.83;9.15;;;;;;;10.35;100.00;101785.75;5060687;28;20062;-65
2024/01/24 09:11:45;;;;;;;37.03;9.10;;;;;;;10.31;100.00;101795.47;5060367;28;20123;-67
2024/01/24 09:14:44;;;;;;;41.08;10.38;;;;;;;10.33;100.00;101812.41;5074245;28;20078;-65
2024/01/24 09:17:35;;;;;;;43.20;10.43;;;;;;;10.32;100.00;101794.41;5073198;28;20064;-65
2024/01/24 09:20:23;;;;;;;45.80;10.15;;;;;;;10.33;100.00;101787.91;5073377;28;20520;-65
2024/01/24 09:23:13;;;;;;;45.50;9.35;;;;;;;10.33;100.00;101779.72;5066464;28;20040;-66
2024/01/24 09:26:04;;;;;;;44.78;10.20;;;;;;;10.36;100.00;101803.75;5054139;28;20409;-65
2024/01/24 09:28:52;;;;;;;41.10;10.35;;;;;;;10.34;100.00;101827.69;5013243;28;20033;-65
2024/01/24 09:31:43;;;;;;;39.30;9.60;;;;;;;10.37;100.00;101828.03;5054819;28;20052;-66
2024/01/24 09:34:32;;;;;;;40.72;9.95;;;;;;;10.40;100.00;101837.63;5062049;28;20142;-66
2024/01/24 09:37:20;;;;;;;40.15;9.38;;;;;;;10.39;100.00;101863.19;5097262;28;20048;-64
2024/01/24 09:40:09;;;;;;;32.35;9.27;;;;;;;10.39;100.00;101852.28;5094810;28;20075;-66
2024/01/24 09:43:01;;;;;;;43.83;10.13;;;;;;;10.37;100.00;101862.63;5073033;28;20048;-65
2024/01/24 09:45:49;;;;;;;38.88;9.63;;;;;;;10.33;100.00;101873.16;5052809;28;20049;-66
2024/01/24 09:48:38;;;;;;;48.25;10.43;;;;;;;10.34;100.00;101882.16;5058813;28;20127;-65
2024/01/24 09:51:26;;;;;;;45.75;9.88;;;;;;;10.32;100.00;101867.94;5060767;28;20044;-67
2024/01/24 09:54:15;;;;;;;35.00;8.85;;;;;;;10.35;100.00;101865.59;5060703;28;20186;-65
2024/01/24 09:57:05;;;;;;;44.33;10.27;;;;;;;10.38;100.00;101883.34;5064893;28;20047;-67
2024/01/24 09:59:54;;;;;;;38.00;10.05;;;;;;;10.36;100.00;101889.03;5080210;28;20045;-66
2024/01/24 10:02:46;;;;;;;44.05;9.93;;;;;;;10.43;100.00;101894.34;5065552;28;20502;-67
2024/01/24 10:05:35;;;;;;;44.08;10.23;;;;;;;10.45;100.00;101890.31;5080187;28;20062;-66
2024/01/24 10:08:24;;;;;;;38.28;8.68;;;;;;;10.42;100.00;101928.13;5067870;28;20045;-66
2024/01/24 10:11:12;;;;;;;41.83;10.43;;;;;;;10.38;100.00;101919.59;5061902;28;20508;-66
2024/01/24 10:14:00;;;;;;;40.38;10.73;;;;;;;10.43;100.00;101935.22;5045134;28;20052;-65
2024/01/24 10:16:50;;;;;;;41.95;9.85;;;;;;;10.43;100.00;101919.69;5059454;28;20041;-67
2024/01/24 10:19:39;;;;;;;34.03;9.40;;;;;;;10.64;100.00;101926.41;5053565;28;20052;-67
2024/01/24 10:22:27;;;;;;;39.45;8.68;;;;;;;10.61;100.00;101913.25;5060997;28;20137;-66
2024/01/24 10:25:17;;;;;;;40.88;9.77;;;;;;;10.62;100.00;101911.34;5073483;28;20522;-67
2024/01/24 10:28:13;;;;;;;37.50;9.32;;;;;;;10.58;100.00;101932.84;5051035;28;20548;-66
2024/01/24 10:31:01;;;;;;;;;;;;;;;10.58;100.00;101935.56;5052984;28;20417;-66
2024/01/24 10:33:55;;;;;;;36.30;8.82;;;;;;;10.56;100.00;101945.88;5026710;28;20427;-66
2024/01/24 10:36:44;;;;;;;37.63;9.10;;;;;;;10.63;100.00;101930.22;5025216;28;20167;-68
2024/01/24 10:39:35;;;;;;;38.53;9.18;;;;;;;10.54;100.00;101945.28;5058401;28;20054;-67
2024/01/24 10:42:27;;;;;;;41.33;10.32;;;;;;;10.55;100.00;101971.44;5044888;28;20048;-66
2024/01/24 10:45:15;;;;;;;37.28;9.50;;;;;;;10.49;100.00;101961.53;5057964;28;20044;-67
2024/01/24 10:48:04;;;;;;;31.40;7.45;;;;;;;10.49;100.00;101980.59;5064905;28;20045;-66
2024/01/24 10:50:53;;;;;;;37.47;9.30;;;;;;;10.50;100.00;101968.63;5058323;28;20045;-67
2024/01/24 10:53:42;;;;;;;29.27;7.55;;;;;;;10.52;100.00;101988.28;5044203;28;20478;-66
2024/01/24 10:56:31;;;;;;;37.70;8.50;;;;;;;10.50;100.00;101984.13;5046355;28;20044;-67
2024/01/24 10:59:19;;;;;;;38.10;9.00;;;;;;;10.52;100.00;101971.09;5073361;28;20051;-67
2024/01/24 11:02:07;;;;;;;37.22;8.55;;;;;;;10.51;100.00;101981.19;5045922;28;20049;-68
2024/01/24 11:04:56;;;;;;;42.45;9.50;;;;;;;10.51;100.00;101997.53;5073067;28;20067;-68
2024/01/24 11:07:55;;;;;;;38.53;8.85;;;;;;;10.50;100.00;102006.75;5045739;28;20044;-68
2024/01/24 11:10:43;;;;;;;39.28;9.13;;;;;;;10.51;100.00;102003.00;5054314;28;20059;-67
2024/01/24 11:13:35;;;;;;;38.83;8.50;;;;;;;10.53;100.00;102000.00;5045930;28;20408;-68
2024/01/24 11:16:30;;;;;;;38.13;8.98;;;;;;;10.53;100.00;102019.91;5073339;28;20072;-69
2024/01/24 11:19:22;;;;;;;39.95;9.15;;;;;;;10.50;100.00;102017.66;5072361;28;20048;-69
2024/01/24 11:22:12;;;;;;;37.22;10.20;;;;;;;10.49;100.00;102016.03;5071881;28;20501;-66
2024/01/24 11:25:13;;;;;;;34.20;8.27;;;;;;;10.51;100.00;102024.78;5049992;28;20048;-67
2024/01/24 11:28:03;;;;;;;42.65;10.30;;;;;;;10.50;100.00;102028.56;5044414;28;20044;-66
2024/01/24 11:30:52;;;;;;;38.13;9.50;;;;;;;10.49;100.00;102031.53;5051538;28;20490;-67
2024/01/24 11:34:06;;;;;;;41.95;9.85;;;;;;;10.49;100.00;102026.09;5026376;28;20416;-67
2024/01/24 11:36:55;;;;;;;42.20;9.73;;;;;;;10.49;100.00;102042.44;5055205;28;20049;-66
2024/01/24 11:39:43;;;;;;;36.78;8.38;;;;;;;10.49;100.00;102056.06;5039140;28;20506;-66
2024/01/24 11:42:36;;;;;;;38.33;8.60;;;;;;;10.52;100.00;102048.22;5057900;28;20040;-69
2024/01/24 11:45:27;;;;;;;38.97;10.63;;;;;;;10.47;100.00;102055.47;5038612;28;20056;-66
2024/01/24 11:48:16;;;;;;;39.55;10.00;;;;;;;10.46;100.00;102057.34;5038876;28;20045;-67
2024/01/24 11:51:07;;;;;;;40.97;9.25;;;;;;;10.48;100.00;102048.94;5040778;28;20061;-67
2024/01/24 11:54:00;;;;;;;40.05;9.68;;;;;;;10.46;100.00;102062.78;5072190;28;20040;-67
2024/01/24 11:56:48;;;;;;;40.00;10.60;;;;;;;10.47;99.80;102072.66;5057765;28;20080;-67
2024/01/24 11:59:36;;;;;;;41.95;9.57;;;;;;;10.47;99.95;102083.53;5076331;28;20416;-68
2024/01/24 12:02:24;;;;;;;39.72;10.20;;;;;;;10.48;99.49;102073.47;5075274;28;20044;-66
2024/01/24 12:05:13;;;;;;;40.45;9.18;;;;;;;10.47;100.00;102097.16;5033773;28;20045;-66
2024/01/24 12:08:01;;;;;;;38.70;10.02;;;;;;;10.48;99.80;102103.44;5076372;28;20123;-67
2024/01/24 12:10:49;;;;;;;37.22;9.10;;;;;;;10.49;100.00;102107.84;5077091;28;20135;-69
2024/01/24 12:13:40;;;;;;;41.95;8.90;;;;;;;10.51;99.82;102089.34;5097271;28;20040;-68
2024/01/24 12:16:30;;;;;;;40.28;10.25;;;;;;;10.52;100.00;102091.84;5099415;28;20051;-68
2024/01/24 12:19:19;;;;;;;32.67;7.82;;;;;;;10.53;99.25;102107.09;5058482;28;20048;-67
2024/01/24 12:22:09;;;;;;;33.15;9.00;;;;;;;10.54;99.65;102132.50;5087749;28;20035;-68
2024/01/24 12:25:00;;;;;;;42.85;9.65;;;;;;;10.54;100.00;102127.03;5048199;28;20044;-67
2024/01/24 12:27:48;;;;;;;40.78;10.48;;;;;;;10.53;99.72;102126.19;5047845;28;20056;-67
2024/01/24 12:30:36;;;;;;;34.00;8.75;;;;;;;10.53;100.00;102131.63;5046648;28;20094;-69
2024/01/24 12:33:24;;;;;;;40.15;9.88;;;;;;;10.50;99.83;102121.22;4352305;28;10000467;-67
2024/01/24 12:36:13;;;;;;;34.25;8.63;;;;;;;10.53;98.49;102125.34;5069584;28;20049;-68
2024/01/24 12:39:03;;;;;;;45.42;11.13;;;;;;;10.49;99.46;102133.19;5054652;28;20052;-66
2024/01/24 12:41:52;;;;;;;35.15;8.80;;;;;;;10.50;99.58;102115.75;5077273;28;20056;-69
2024/01/24 12:44:40;;;;;;;39.45;9.40;;;;;;;10.50;100.00;102143.00;5075752;28;20044;-67
2024/01/24 12:47:28;;;;;;;39.92;9.40;;;;;;;10.53;100.00;102156.16;5082168;28;20057;-68
2024/01/24 12:50:17;;;;;;;37.40;8.93;;;;;;;10.52;100.00;102168.13;5042861;28;20186;-68